sensor_id;sensor_type;location;lat;lon;timestamp;P1;durP1;ratioP1;P2;durP2;ratioP2
691;SDS011;70475;50.084;8.576;2023-06-10T00:00:57;8.20;;;7.43;;
691;SDS011;70475;50.084;8.576;2023-06-10T00:03:27;8.73;;;7.03;;
691;SDS011;70475;50.084;8.576;2023-06-10T00:05:54;7.83;;;7.10;;
691;SDS011;70475;50.084;8.576;2023-06-10T00:08:22;11.70;;;6.77;;
691;SDS011;70475;50.084;8.576;2023-06-10T00:10:50;8.10;;;7.10;;
691;SDS011;70475;50.084;8.576;2023-06-10T00:13:18;7.50;;;6.80;;
691;SDS011;70475;50.084;8.576;2023-06-10T00:15:45;7.40;;;6.70;;
691;SDS011;70475;50.084;8.576;2023-06-10T00:18:13;8.13;;;7.33;;
691;SDS011;70475;50.084;8.576;2023-06-10T00:20:43;7.20;;;6.50;;
691;SDS011;70475;50.084;8.576;2023-06-10T00:23:10;7.23;;;6.53;;
691;SDS011;70475;50.084;8.576;2023-06-10T00:25:38;7.87;;;6.60;;
691;SDS011;70475;50.084;8.576;2023-06-10T00:28:05;7.43;;;6.63;;
691;SDS011;70475;50.084;8.576;2023-06-10T00:30:33;8.40;;;7.57;;
691;SDS011;70475;50.084;8.576;2023-06-10T00:33:00;8.07;;;7.30;;
691;SDS011;70475;50.084;8.576;2023-06-10T00:35:28;8.63;;;7.70;;
691;SDS011;70475;50.084;8.576;2023-06-10T00:37:57;8.57;;;7.80;;
691;SDS011;70475;50.084;8.576;2023-06-10T00:40:24;8.30;;;7.03;;
691;SDS011;70475;50.084;8.576;2023-06-10T00:42:52;8.23;;;7.37;;
691;SDS011;70475;50.084;8.576;2023-06-10T00:45:19;7.80;;;7.10;;
691;SDS011;70475;50.084;8.576;2023-06-10T00:47:47;9.20;;;7.10;;
691;SDS011;70475;50.084;8.576;2023-06-10T00:50:15;8.37;;;6.83;;
691;SDS011;70475;50.084;8.576;2023-06-10T00:52:43;7.97;;;7.20;;
691;SDS011;70475;50.084;8.576;2023-06-10T00:55:14;9.17;;;7.80;;
691;SDS011;70475;50.084;8.576;2023-06-10T00:57:44;9.33;;;6.80;;
691;SDS011;70475;50.084;8.576;2023-06-10T01:00:14;9.37;;;8.47;;
691;SDS011;70475;50.084;8.576;2023-06-10T01:02:42;7.73;;;6.90;;
691;SDS011;70475;50.084;8.576;2023-06-10T01:05:10;12.70;;;7.10;;
691;SDS011;70475;50.084;8.576;2023-06-10T01:07:39;8.60;;;7.30;;
691;SDS011;70475;50.084;8.576;2023-06-10T01:10:11;7.87;;;7.17;;
691;SDS011;70475;50.084;8.576;2023-06-10T01:12:44;7.70;;;6.90;;
691;SDS011;70475;50.084;8.576;2023-06-10T01:15:18;8.13;;;7.33;;
691;SDS011;70475;50.084;8.576;2023-06-10T01:17:55;8.63;;;7.77;;
691;SDS011;70475;50.084;8.576;2023-06-10T01:20:24;7.80;;;7.03;;
691;SDS011;70475;50.084;8.576;2023-06-10T01:22:55;6.93;;;6.23;;
691;SDS011;70475;50.084;8.576;2023-06-10T01:25:24;9.47;;;6.87;;
691;SDS011;70475;50.084;8.576;2023-06-10T01:27:57;9.10;;;7.00;;
691;SDS011;70475;50.084;8.576;2023-06-10T01:30:32;24.53;;;8.13;;
691;SDS011;70475;50.084;8.576;2023-06-10T01:33:07;7.93;;;7.27;;
691;SDS011;70475;50.084;8.576;2023-06-10T01:35:37;7.20;;;6.53;;
691;SDS011;70475;50.084;8.576;2023-06-10T01:38:07;7.53;;;6.83;;
691;SDS011;70475;50.084;8.576;2023-06-10T01:40:35;8.03;;;7.33;;
691;SDS011;70475;50.084;8.576;2023-06-10T01:43:03;8.37;;;6.90;;
691;SDS011;70475;50.084;8.576;2023-06-10T01:45:32;8.13;;;7.13;;
691;SDS011;70475;50.084;8.576;2023-06-10T01:47:59;8.00;;;7.30;;
691;SDS011;70475;50.084;8.576;2023-06-10T01:50:27;8.10;;;7.30;;
691;SDS011;70475;50.084;8.576;2023-06-10T01:52:56;7.73;;;7.00;;
691;SDS011;70475;50.084;8.576;2023-06-10T01:55:25;8.07;;;7.27;;
691;SDS011;70475;50.084;8.576;2023-06-10T01:57:53;8.00;;;7.07;;
691;SDS011;70475;50.084;8.576;2023-06-10T02:00:20;8.33;;;7.00;;
691;SDS011;70475;50.084;8.576;2023-06-10T02:02:48;6.90;;;6.27;;
691;SDS011;70475;50.084;8.576;2023-06-10T02:05:16;7.23;;;6.20;;
691;SDS011;70475;50.084;8.576;2023-06-10T02:07:43;7.13;;;6.47;;
691;SDS011;70475;50.084;8.576;2023-06-10T02:10:11;7.53;;;6.47;;
691;SDS011;70475;50.084;8.576;2023-06-10T02:12:40;7.57;;;6.60;;
691;SDS011;70475;50.084;8.576;2023-06-10T02:15:07;11.00;;;7.30;;
691;SDS011;70475;50.084;8.576;2023-06-10T02:17:35;7.33;;;6.70;;
691;SDS011;70475;50.084;8.576;2023-06-10T02:20:04;7.90;;;6.40;;
691;SDS011;70475;50.084;8.576;2023-06-10T02:22:35;8.13;;;7.30;;
691;SDS011;70475;50.084;8.576;2023-06-10T02:25:02;6.50;;;5.90;;
691;SDS011;70475;50.084;8.576;2023-06-10T02:27:30;7.77;;;7.00;;
691;SDS011;70475;50.084;8.576;2023-06-10T02:30:00;7.70;;;7.00;;
691;SDS011;70475;50.084;8.576;2023-06-10T02:32:27;7.17;;;6.57;;
691;SDS011;70475;50.084;8.576;2023-06-10T02:34:55;8.23;;;6.10;;
691;SDS011;70475;50.084;8.576;2023-06-10T02:37:23;11.17;;;7.47;;
691;SDS011;70475;50.084;8.576;2023-06-10T02:39:51;7.70;;;6.67;;
691;SDS011;70475;50.084;8.576;2023-06-10T02:42:18;7.50;;;6.67;;
691;SDS011;70475;50.084;8.576;2023-06-10T02:44:46;7.13;;;6.43;;
691;SDS011;70475;50.084;8.576;2023-06-10T02:47:15;6.70;;;6.10;;
691;SDS011;70475;50.084;8.576;2023-06-10T02:49:42;11.43;;;7.20;;
691;SDS011;70475;50.084;8.576;2023-06-10T02:52:10;7.33;;;6.63;;
691;SDS011;70475;50.084;8.576;2023-06-10T02:54:38;8.20;;;7.40;;
691;SDS011;70475;50.084;8.576;2023-06-10T02:57:06;8.00;;;6.50;;
691;SDS011;70475;50.084;8.576;2023-06-10T02:59:33;7.80;;;6.67;;
691;SDS011;70475;50.084;8.576;2023-06-10T03:02:01;7.43;;;6.73;;
691;SDS011;70475;50.084;8.576;2023-06-10T03:04:31;7.63;;;6.93;;
691;SDS011;70475;50.084;8.576;2023-06-10T03:06:58;7.73;;;6.93;;
691;SDS011;70475;50.084;8.576;2023-06-10T03:09:29;7.20;;;6.50;;
691;SDS011;70475;50.084;8.576;2023-06-10T03:11:57;7.83;;;6.87;;
691;SDS011;70475;50.084;8.576;2023-06-10T03:14:25;12.50;;;6.80;;
691;SDS011;70475;50.084;8.576;2023-06-10T03:16:52;6.70;;;6.00;;
691;SDS011;70475;50.084;8.576;2023-06-10T03:19:20;6.73;;;6.00;;
691;SDS011;70475;50.084;8.576;2023-06-10T03:21:57;10.83;;;6.90;;
691;SDS011;70475;50.084;8.576;2023-06-10T03:24:33;8.50;;;6.43;;
691;SDS011;70475;50.084;8.576;2023-06-10T03:27:02;7.13;;;6.43;;
691;SDS011;70475;50.084;8.576;2023-06-10T03:29:31;7.40;;;6.27;;
691;SDS011;70475;50.084;8.576;2023-06-10T03:31:58;8.20;;;6.90;;
691;SDS011;70475;50.084;8.576;2023-06-10T03:34:26;10.03;;;7.40;;
691;SDS011;70475;50.084;8.576;2023-06-10T03:36:55;7.53;;;6.67;;
691;SDS011;70475;50.084;8.576;2023-06-10T03:39:22;9.33;;;6.57;;
691;SDS011;70475;50.084;8.576;2023-06-10T03:41:50;11.30;;;7.20;;
691;SDS011;70475;50.084;8.576;2023-06-10T03:44:18;6.77;;;6.17;;
691;SDS011;70475;50.084;8.576;2023-06-10T03:46:46;6.40;;;5.83;;
691;SDS011;70475;50.084;8.576;2023-06-10T03:49:13;7.17;;;6.47;;
691;SDS011;70475;50.084;8.576;2023-06-10T03:51:42;7.30;;;6.70;;
691;SDS011;70475;50.084;8.576;2023-06-10T03:54:11;8.47;;;7.00;;
691;SDS011;70475;50.084;8.576;2023-06-10T03:56:38;7.37;;;6.63;;
691;SDS011;70475;50.084;8.576;2023-06-10T03:59:06;6.50;;;5.87;;
691;SDS011;70475;50.084;8.576;2023-06-10T04:01:33;7.10;;;6.50;;
691;SDS011;70475;50.084;8.576;2023-06-10T04:04:03;7.57;;;6.83;;
691;SDS011;70475;50.084;8.576;2023-06-10T04:06:31;7.90;;;6.80;;
691;SDS011;70475;50.084;8.576;2023-06-10T04:08:59;7.90;;;7.10;;
691;SDS011;70475;50.084;8.576;2023-06-10T04:11:27;7.43;;;6.73;;
691;SDS011;70475;50.084;8.576;2023-06-10T04:13:55;8.10;;;7.40;;
691;SDS011;70475;50.084;8.576;2023-06-10T04:16:22;7.93;;;6.23;;
691;SDS011;70475;50.084;8.576;2023-06-10T04:18:50;7.97;;;6.43;;
691;SDS011;70475;50.084;8.576;2023-06-10T04:21:17;6.97;;;6.27;;
691;SDS011;70475;50.084;8.576;2023-06-10T04:23:48;8.10;;;7.30;;
691;SDS011;70475;50.084;8.576;2023-06-10T04:26:15;7.77;;;7.07;;
691;SDS011;70475;50.084;8.576;2023-06-10T04:28:44;9.93;;;6.90;;
691;SDS011;70475;50.084;8.576;2023-06-10T04:31:12;7.77;;;7.00;;
691;SDS011;70475;50.084;8.576;2023-06-10T04:33:40;7.03;;;6.33;;
691;SDS011;70475;50.084;8.576;2023-06-10T04:36:08;10.17;;;6.93;;
691;SDS011;70475;50.084;8.576;2023-06-10T04:38:35;7.63;;;6.80;;
691;SDS011;70475;50.084;8.576;2023-06-10T04:41:03;7.60;;;6.80;;
691;SDS011;70475;50.084;8.576;2023-06-10T04:43:30;7.03;;;6.40;;
691;SDS011;70475;50.084;8.576;2023-06-10T04:45:59;6.80;;;6.20;;
691;SDS011;70475;50.084;8.576;2023-06-10T04:48:28;8.07;;;7.37;;
691;SDS011;70475;50.084;8.576;2023-06-10T04:50:55;9.10;;;6.73;;
691;SDS011;70475;50.084;8.576;2023-06-10T04:53:23;7.87;;;6.47;;
691;SDS011;70475;50.084;8.576;2023-06-10T04:55:50;7.50;;;6.70;;
691;SDS011;70475;50.084;8.576;2023-06-10T04:58:18;8.60;;;6.30;;
691;SDS011;70475;50.084;8.576;2023-06-10T05:00:45;7.57;;;6.33;;
691;SDS011;70475;50.084;8.576;2023-06-10T05:03:14;7.53;;;6.77;;
691;SDS011;70475;50.084;8.576;2023-06-10T05:05:42;7.50;;;6.47;;
691;SDS011;70475;50.084;8.576;2023-06-10T05:08:10;7.87;;;6.87;;
691;SDS011;70475;50.084;8.576;2023-06-10T05:10:37;7.13;;;6.47;;
691;SDS011;70475;50.084;8.576;2023-06-10T05:13:05;7.23;;;6.53;;
691;SDS011;70475;50.084;8.576;2023-06-10T05:15:33;8.83;;;6.50;;
691;SDS011;70475;50.084;8.576;2023-06-10T05:18:00;9.70;;;6.30;;
691;SDS011;70475;50.084;8.576;2023-06-10T05:20:30;7.27;;;6.57;;
691;SDS011;70475;50.084;8.576;2023-06-10T05:22:57;7.20;;;6.50;;
691;SDS011;70475;50.084;8.576;2023-06-10T05:25:25;6.23;;;5.63;;
691;SDS011;70475;50.084;8.576;2023-06-10T05:27:53;6.77;;;6.10;;
691;SDS011;70475;50.084;8.576;2023-06-10T05:30:20;7.10;;;6.40;;
691;SDS011;70475;50.084;8.576;2023-06-10T05:32:48;7.37;;;5.87;;
691;SDS011;70475;50.084;8.576;2023-06-10T05:35:17;7.07;;;5.63;;
691;SDS011;70475;50.084;8.576;2023-06-10T05:37:46;6.43;;;5.80;;
691;SDS011;70475;50.084;8.576;2023-06-10T05:40:13;7.10;;;6.40;;
691;SDS011;70475;50.084;8.576;2023-06-10T05:42:41;7.77;;;6.97;;
691;SDS011;70475;50.084;8.576;2023-06-10T05:45:09;7.27;;;5.60;;
691;SDS011;70475;50.084;8.576;2023-06-10T05:47:37;6.20;;;5.60;;
691;SDS011;70475;50.084;8.576;2023-06-10T05:50:05;7.73;;;5.40;;
691;SDS011;70475;50.084;8.576;2023-06-10T05:52:34;7.03;;;6.33;;
691;SDS011;70475;50.084;8.576;2023-06-10T05:55:04;5.70;;;5.10;;
691;SDS011;70475;50.084;8.576;2023-06-10T05:57:32;6.47;;;5.63;;
691;SDS011;70475;50.084;8.576;2023-06-10T06:00:01;8.00;;;5.43;;
691;SDS011;70475;50.084;8.576;2023-06-10T06:02:28;7.20;;;5.60;;
691;SDS011;70475;50.084;8.576;2023-06-10T06:04:56;5.90;;;5.33;;
691;SDS011;70475;50.084;8.576;2023-06-10T06:07:24;7.97;;;5.50;;
691;SDS011;70475;50.084;8.576;2023-06-10T06:09:52;6.87;;;5.63;;
691;SDS011;70475;50.084;8.576;2023-06-10T06:12:20;6.77;;;5.60;;
691;SDS011;70475;50.084;8.576;2023-06-10T06:14:48;8.80;;;6.60;;
691;SDS011;70475;50.084;8.576;2023-06-10T06:17:16;5.97;;;5.47;;
691;SDS011;70475;50.084;8.576;2023-06-10T06:19:43;7.13;;;5.30;;
691;SDS011;70475;50.084;8.576;2023-06-10T06:22:13;6.90;;;5.70;;
691;SDS011;70475;50.084;8.576;2023-06-10T06:24:41;7.57;;;5.60;;
691;SDS011;70475;50.084;8.576;2023-06-10T06:27:09;6.00;;;5.30;;
691;SDS011;70475;50.084;8.576;2023-06-10T06:29:37;7.10;;;5.20;;
691;SDS011;70475;50.084;8.576;2023-06-10T06:32:06;5.60;;;5.10;;
691;SDS011;70475;50.084;8.576;2023-06-10T06:34:34;6.33;;;5.37;;
691;SDS011;70475;50.084;8.576;2023-06-10T06:37:01;7.07;;;5.23;;
691;SDS011;70475;50.084;8.576;2023-06-10T06:39:29;5.70;;;5.20;;
691;SDS011;70475;50.084;8.576;2023-06-10T06:41:56;6.53;;;5.47;;
691;SDS011;70475;50.084;8.576;2023-06-10T06:44:24;6.20;;;5.60;;
691;SDS011;70475;50.084;8.576;2023-06-10T06:46:53;7.70;;;5.97;;
691;SDS011;70475;50.084;8.576;2023-06-10T06:49:20;6.23;;;5.73;;
691;SDS011;70475;50.084;8.576;2023-06-10T06:51:48;5.70;;;5.10;;
691;SDS011;70475;50.084;8.576;2023-06-10T06:54:15;6.30;;;5.60;;
691;SDS011;70475;50.084;8.576;2023-06-10T06:56:43;5.43;;;4.93;;
691;SDS011;70475;50.084;8.576;2023-06-10T06:59:10;5.83;;;5.00;;
691;SDS011;70475;50.084;8.576;2023-06-10T07:01:40;7.87;;;5.70;;
691;SDS011;70475;50.084;8.576;2023-06-10T07:04:08;5.47;;;4.97;;
691;SDS011;70475;50.084;8.576;2023-06-10T07:06:36;6.83;;;5.07;;
691;SDS011;70475;50.084;8.576;2023-06-10T07:09:04;6.47;;;5.60;;
691;SDS011;70475;50.084;8.576;2023-06-10T07:11:32;6.17;;;5.23;;
691;SDS011;70475;50.084;8.576;2023-06-10T07:14:00;6.27;;;5.53;;
691;SDS011;70475;50.084;8.576;2023-06-10T07:16:27;5.33;;;4.83;;
691;SDS011;70475;50.084;8.576;2023-06-10T07:18:55;6.37;;;5.73;;
691;SDS011;70475;50.084;8.576;2023-06-10T07:21:24;6.33;;;5.73;;
691;SDS011;70475;50.084;8.576;2023-06-10T07:23:52;6.80;;;5.57;;
691;SDS011;70475;50.084;8.576;2023-06-10T07:26:21;5.53;;;5.00;;
691;SDS011;70475;50.084;8.576;2023-06-10T07:28:49;5.83;;;5.23;;
691;SDS011;70475;50.084;8.576;2023-06-10T07:31:16;5.90;;;5.30;;
691;SDS011;70475;50.084;8.576;2023-06-10T07:33:44;6.10;;;5.43;;
691;SDS011;70475;50.084;8.576;2023-06-10T07:36:12;6.10;;;5.50;;
691;SDS011;70475;50.084;8.576;2023-06-10T07:38:41;5.93;;;5.30;;
691;SDS011;70475;50.084;8.576;2023-06-10T07:41:08;6.30;;;5.70;;
691;SDS011;70475;50.084;8.576;2023-06-10T07:43:36;6.50;;;5.90;;
691;SDS011;70475;50.084;8.576;2023-06-10T07:46:04;6.00;;;5.20;;
691;SDS011;70475;50.084;8.576;2023-06-10T07:48:32;6.50;;;5.57;;
691;SDS011;70475;50.084;8.576;2023-06-10T07:51:00;6.17;;;5.57;;
691;SDS011;70475;50.084;8.576;2023-06-10T07:53:28;6.87;;;6.17;;
691;SDS011;70475;50.084;8.576;2023-06-10T07:55:57;7.00;;;6.30;;
691;SDS011;70475;50.084;8.576;2023-06-10T07:58:24;6.93;;;6.17;;
691;SDS011;70475;50.084;8.576;2023-06-10T08:00:52;9.50;;;6.50;;
691;SDS011;70475;50.084;8.576;2023-06-10T08:03:19;6.70;;;6.00;;
691;SDS011;70475;50.084;8.576;2023-06-10T08:05:47;6.77;;;6.17;;
691;SDS011;70475;50.084;8.576;2023-06-10T08:08:14;6.70;;;6.07;;
691;SDS011;70475;50.084;8.576;2023-06-10T08:10:44;6.47;;;5.87;;
691;SDS011;70475;50.084;8.576;2023-06-10T08:13:13;6.00;;;5.40;;
691;SDS011;70475;50.084;8.576;2023-06-10T08:15:41;9.60;;;6.63;;
691;SDS011;70475;50.084;8.576;2023-06-10T08:18:08;10.13;;;6.57;;
691;SDS011;70475;50.084;8.576;2023-06-10T08:20:36;6.77;;;6.07;;
691;SDS011;70475;50.084;8.576;2023-06-10T08:23:04;10.47;;;6.70;;
691;SDS011;70475;50.084;8.576;2023-06-10T08:25:31;6.90;;;6.30;;
691;SDS011;70475;50.084;8.576;2023-06-10T08:27:59;6.97;;;5.57;;
691;SDS011;70475;50.084;8.576;2023-06-10T08:30:31;6.33;;;5.73;;
691;SDS011;70475;50.084;8.576;2023-06-10T08:32:59;10.43;;;6.70;;
691;SDS011;70475;50.084;8.576;2023-06-10T08:35:27;8.50;;;6.80;;
691;SDS011;70475;50.084;8.576;2023-06-10T08:37:54;6.63;;;6.03;;
691;SDS011;70475;50.084;8.576;2023-06-10T08:40:22;7.00;;;5.63;;
691;SDS011;70475;50.084;8.576;2023-06-10T08:42:53;6.43;;;5.80;;
691;SDS011;70475;50.084;8.576;2023-06-10T08:45:26;6.80;;;6.10;;
691;SDS011;70475;50.084;8.576;2023-06-10T08:47:58;7.37;;;6.63;;
691;SDS011;70475;50.084;8.576;2023-06-10T08:50:27;6.60;;;5.87;;
691;SDS011;70475;50.084;8.576;2023-06-10T08:52:57;10.30;;;5.90;;
691;SDS011;70475;50.084;8.576;2023-06-10T08:55:27;6.03;;;5.63;;
691;SDS011;70475;50.084;8.576;2023-06-10T08:57:58;7.93;;;6.03;;
691;SDS011;70475;50.084;8.576;2023-06-10T09:00:26;6.03;;;5.53;;
691;SDS011;70475;50.084;8.576;2023-06-10T09:02:56;7.10;;;6.40;;
691;SDS011;70475;50.084;8.576;2023-06-10T09:05:30;5.93;;;5.33;;
691;SDS011;70475;50.084;8.576;2023-06-10T09:08:00;6.23;;;5.63;;
691;SDS011;70475;50.084;8.576;2023-06-10T09:10:28;7.60;;;5.43;;
691;SDS011;70475;50.084;8.576;2023-06-10T09:12:56;6.67;;;6.07;;
691;SDS011;70475;50.084;8.576;2023-06-10T09:15:24;6.87;;;6.03;;
691;SDS011;70475;50.084;8.576;2023-06-10T09:17:52;7.60;;;6.50;;
691;SDS011;70475;50.084;8.576;2023-06-10T09:20:19;6.70;;;6.00;;
691;SDS011;70475;50.084;8.576;2023-06-10T09:22:48;6.90;;;6.30;;
691;SDS011;70475;50.084;8.576;2023-06-10T09:25:16;6.57;;;5.40;;
691;SDS011;70475;50.084;8.576;2023-06-10T09:27:44;7.00;;;6.33;;
691;SDS011;70475;50.084;8.576;2023-06-10T09:30:25;7.40;;;6.70;;
691;SDS011;70475;50.084;8.576;2023-06-10T09:32:54;11.83;;;5.97;;
691;SDS011;70475;50.084;8.576;2023-06-10T09:35:23;6.60;;;6.00;;
691;SDS011;70475;50.084;8.576;2023-06-10T09:37:53;6.53;;;5.97;;
691;SDS011;70475;50.084;8.576;2023-06-10T09:40:22;8.57;;;6.83;;
691;SDS011;70475;50.084;8.576;2023-06-10T09:42:52;7.23;;;6.40;;
691;SDS011;70475;50.084;8.576;2023-06-10T09:45:21;6.10;;;5.60;;
691;SDS011;70475;50.084;8.576;2023-06-10T09:47:51;7.47;;;5.97;;
691;SDS011;70475;50.084;8.576;2023-06-10T09:50:19;7.10;;;6.50;;
691;SDS011;70475;50.084;8.576;2023-06-10T09:52:47;6.13;;;5.53;;
691;SDS011;70475;50.084;8.576;2023-06-10T09:55:16;9.67;;;6.17;;
691;SDS011;70475;50.084;8.576;2023-06-10T09:57:44;6.60;;;5.57;;
691;SDS011;70475;50.084;8.576;2023-06-10T10:00:17;8.50;;;6.27;;
691;SDS011;70475;50.084;8.576;2023-06-10T10:02:45;7.00;;;6.30;;
691;SDS011;70475;50.084;8.576;2023-06-10T10:05:14;5.90;;;5.40;;
691;SDS011;70475;50.084;8.576;2023-06-10T10:07:43;6.07;;;5.47;;
691;SDS011;70475;50.084;8.576;2023-06-10T10:10:11;6.20;;;5.70;;
691;SDS011;70475;50.084;8.576;2023-06-10T10:12:42;6.20;;;5.60;;
691;SDS011;70475;50.084;8.576;2023-06-10T10:15:13;5.67;;;5.17;;
691;SDS011;70475;50.084;8.576;2023-06-10T10:17:44;6.80;;;6.20;;
691;SDS011;70475;50.084;8.576;2023-06-10T10:20:17;6.20;;;5.77;;
691;SDS011;70475;50.084;8.576;2023-06-10T10:22:47;6.20;;;5.60;;
691;SDS011;70475;50.084;8.576;2023-06-10T10:25:22;6.30;;;5.80;;
691;SDS011;70475;50.084;8.576;2023-06-10T10:27:56;6.90;;;5.63;;
691;SDS011;70475;50.084;8.576;2023-06-10T10:30:26;6.07;;;5.57;;
691;SDS011;70475;50.084;8.576;2023-06-10T10:32:56;6.90;;;6.20;;
691;SDS011;70475;50.084;8.576;2023-06-10T10:35:25;5.63;;;5.13;;
691;SDS011;70475;50.084;8.576;2023-06-10T10:37:54;5.67;;;5.03;;
691;SDS011;70475;50.084;8.576;2023-06-10T10:40:22;6.00;;;5.50;;
691;SDS011;70475;50.084;8.576;2023-06-10T10:42:52;5.23;;;4.80;;
691;SDS011;70475;50.084;8.576;2023-06-10T10:45:22;6.30;;;5.77;;
691;SDS011;70475;50.084;8.576;2023-06-10T10:47:51;5.30;;;4.73;;
691;SDS011;70475;50.084;8.576;2023-06-10T10:50:21;6.33;;;5.47;;
691;SDS011;70475;50.084;8.576;2023-06-10T10:52:53;5.57;;;5.07;;
691;SDS011;70475;50.084;8.576;2023-06-10T10:55:22;5.77;;;5.27;;
691;SDS011;70475;50.084;8.576;2023-06-10T10:57:54;7.77;;;6.10;;
691;SDS011;70475;50.084;8.576;2023-06-10T11:00:31;6.60;;;6.00;;
691;SDS011;70475;50.084;8.576;2023-06-10T11:03:00;4.60;;;4.30;;
691;SDS011;70475;50.084;8.576;2023-06-10T11:05:37;7.93;;;5.57;;
691;SDS011;70475;50.084;8.576;2023-06-10T11:08:07;6.90;;;4.43;;
691;SDS011;70475;50.084;8.576;2023-06-10T11:10:36;5.63;;;5.10;;
691;SDS011;70475;50.084;8.576;2023-06-10T11:13:06;5.27;;;4.83;;
691;SDS011;70475;50.084;8.576;2023-06-10T11:15:39;4.97;;;4.47;;
691;SDS011;70475;50.084;8.576;2023-06-10T11:18:11;10.63;;;5.03;;
691;SDS011;70475;50.084;8.576;2023-06-10T11:20:53;5.00;;;4.60;;
691;SDS011;70475;50.084;8.576;2023-06-10T11:26:20;5.67;;;4.70;;
691;SDS011;70475;50.084;8.576;2023-06-10T11:31:48;5.10;;;4.60;;
691;SDS011;70475;50.084;8.576;2023-06-10T11:34:21;4.13;;;3.73;;
691;SDS011;70475;50.084;8.576;2023-06-10T11:36:51;4.80;;;4.40;;
691;SDS011;70475;50.084;8.576;2023-06-10T11:39:19;5.83;;;4.40;;
691;SDS011;70475;50.084;8.576;2023-06-10T11:41:49;7.90;;;4.90;;
691;SDS011;70475;50.084;8.576;2023-06-10T11:44:18;5.27;;;4.77;;
691;SDS011;70475;50.084;8.576;2023-06-10T11:46:48;4.83;;;4.43;;
691;SDS011;70475;50.084;8.576;2023-06-10T11:49:17;4.27;;;3.93;;
691;SDS011;70475;50.084;8.576;2023-06-10T11:51:47;4.70;;;4.30;;
691;SDS011;70475;50.084;8.576;2023-06-10T11:54:17;5.50;;;4.57;;
691;SDS011;70475;50.084;8.576;2023-06-10T11:56:45;5.67;;;4.77;;
691;SDS011;70475;50.084;8.576;2023-06-10T11:59:13;4.70;;;4.30;;
691;SDS011;70475;50.084;8.576;2023-06-10T12:01:42;5.10;;;4.67;;
691;SDS011;70475;50.084;8.576;2023-06-10T12:04:12;4.30;;;3.90;;
691;SDS011;70475;50.084;8.576;2023-06-10T12:06:42;8.07;;;4.97;;
691;SDS011;70475;50.084;8.576;2023-06-10T12:09:13;3.97;;;3.60;;
691;SDS011;70475;50.084;8.576;2023-06-10T12:11:51;6.93;;;3.70;;
691;SDS011;70475;50.084;8.576;2023-06-10T12:17:35;4.67;;;4.27;;
691;SDS011;70475;50.084;8.576;2023-06-10T12:20:06;4.63;;;4.23;;
691;SDS011;70475;50.084;8.576;2023-06-10T12:22:35;4.50;;;4.20;;
691;SDS011;70475;50.084;8.576;2023-06-10T12:25:04;5.67;;;4.33;;
691;SDS011;70475;50.084;8.576;2023-06-10T12:27:33;4.57;;;4.17;;
691;SDS011;70475;50.084;8.576;2023-06-10T12:30:03;6.03;;;4.80;;
691;SDS011;70475;50.084;8.576;2023-06-10T12:32:36;4.90;;;4.50;;
691;SDS011;70475;50.084;8.576;2023-06-10T12:35:07;4.90;;;4.40;;
691;SDS011;70475;50.084;8.576;2023-06-10T12:37:36;6.20;;;4.30;;
691;SDS011;70475;50.084;8.576;2023-06-10T12:40:09;6.10;;;5.50;;
691;SDS011;70475;50.084;8.576;2023-06-10T12:42:37;5.20;;;4.10;;
691;SDS011;70475;50.084;8.576;2023-06-10T12:45:06;4.37;;;3.97;;
691;SDS011;70475;50.084;8.576;2023-06-10T12:47:37;5.67;;;4.90;;
691;SDS011;70475;50.084;8.576;2023-06-10T12:50:07;5.00;;;4.60;;
691;SDS011;70475;50.084;8.576;2023-06-10T12:52:35;6.43;;;3.70;;
691;SDS011;70475;50.084;8.576;2023-06-10T12:55:04;6.30;;;4.20;;
691;SDS011;70475;50.084;8.576;2023-06-10T12:57:32;4.53;;;3.87;;
691;SDS011;70475;50.084;8.576;2023-06-10T12:59:59;5.43;;;4.43;;
691;SDS011;70475;50.084;8.576;2023-06-10T13:02:31;4.97;;;4.47;;
691;SDS011;70475;50.084;8.576;2023-06-10T13:04:58;4.93;;;4.53;;
691;SDS011;70475;50.084;8.576;2023-06-10T13:07:27;5.13;;;4.70;;
691;SDS011;70475;50.084;8.576;2023-06-10T13:09:56;4.80;;;4.40;;
691;SDS011;70475;50.084;8.576;2023-06-10T13:12:25;5.20;;;4.80;;
691;SDS011;70475;50.084;8.576;2023-06-10T13:15:12;5.57;;;4.60;;
691;SDS011;70475;50.084;8.576;2023-06-10T13:17:41;4.50;;;4.10;;
691;SDS011;70475;50.084;8.576;2023-06-10T13:20:09;4.57;;;4.17;;
691;SDS011;70475;50.084;8.576;2023-06-10T13:22:38;4.70;;;4.30;;
691;SDS011;70475;50.084;8.576;2023-06-10T13:25:06;5.30;;;4.70;;
691;SDS011;70475;50.084;8.576;2023-06-10T13:27:35;5.30;;;4.77;;
691;SDS011;70475;50.084;8.576;2023-06-10T13:30:05;5.47;;;4.97;;
691;SDS011;70475;50.084;8.576;2023-06-10T13:32:34;7.57;;;4.90;;
691;SDS011;70475;50.084;8.576;2023-06-10T13:35:02;4.93;;;4.53;;
691;SDS011;70475;50.084;8.576;2023-06-10T13:37:30;7.37;;;4.00;;
691;SDS011;70475;50.084;8.576;2023-06-10T13:40:01;6.53;;;4.23;;
691;SDS011;70475;50.084;8.576;2023-06-10T13:42:29;5.00;;;4.60;;
691;SDS011;70475;50.084;8.576;2023-06-10T13:44:56;4.23;;;3.83;;
691;SDS011;70475;50.084;8.576;2023-06-10T13:47:24;4.60;;;4.20;;
691;SDS011;70475;50.084;8.576;2023-06-10T13:49:52;4.13;;;3.77;;
691;SDS011;70475;50.084;8.576;2023-06-10T13:52:20;4.67;;;4.27;;
691;SDS011;70475;50.084;8.576;2023-06-10T13:54:48;5.50;;;4.07;;
691;SDS011;70475;50.084;8.576;2023-06-10T13:57:17;5.67;;;4.93;;
691;SDS011;70475;50.084;8.576;2023-06-10T13:59:44;4.80;;;4.40;;
691;SDS011;70475;50.084;8.576;2023-06-10T14:02:12;4.93;;;4.53;;
691;SDS011;70475;50.084;8.576;2023-06-10T14:04:40;4.97;;;4.47;;
691;SDS011;70475;50.084;8.576;2023-06-10T14:07:07;5.17;;;4.67;;
691;SDS011;70475;50.084;8.576;2023-06-10T14:09:35;4.20;;;3.80;;
691;SDS011;70475;50.084;8.576;2023-06-10T14:12:03;4.43;;;4.03;;
691;SDS011;70475;50.084;8.576;2023-06-10T14:14:33;5.40;;;4.30;;
691;SDS011;70475;50.084;8.576;2023-06-10T14:17:00;9.83;;;4.50;;
691;SDS011;70475;50.084;8.576;2023-06-10T14:19:29;4.40;;;4.00;;
691;SDS011;70475;50.084;8.576;2023-06-10T14:21:56;4.10;;;3.70;;
691;SDS011;70475;50.084;8.576;2023-06-10T14:24:24;4.53;;;4.07;;
691;SDS011;70475;50.084;8.576;2023-06-10T14:26:52;3.80;;;3.50;;
691;SDS011;70475;50.084;8.576;2023-06-10T14:29:20;4.17;;;3.30;;
691;SDS011;70475;50.084;8.576;2023-06-10T14:31:49;4.20;;;3.80;;
691;SDS011;70475;50.084;8.576;2023-06-10T14:34:16;4.13;;;3.83;;
691;SDS011;70475;50.084;8.576;2023-06-10T14:36:45;3.43;;;3.13;;
691;SDS011;70475;50.084;8.576;2023-06-10T14:39:13;3.70;;;3.40;;
691;SDS011;70475;50.084;8.576;2023-06-10T14:41:40;5.83;;;3.70;;
691;SDS011;70475;50.084;8.576;2023-06-10T14:44:08;4.30;;;3.90;;
691;SDS011;70475;50.084;8.576;2023-06-10T14:46:36;3.57;;;3.27;;
691;SDS011;70475;50.084;8.576;2023-06-10T14:49:04;3.77;;;3.47;;
691;SDS011;70475;50.084;8.576;2023-06-10T14:51:32;4.03;;;3.30;;
691;SDS011;70475;50.084;8.576;2023-06-10T14:54:02;4.10;;;3.70;;
691;SDS011;70475;50.084;8.576;2023-06-10T14:56:30;3.83;;;3.50;;
691;SDS011;70475;50.084;8.576;2023-06-10T14:58:57;3.40;;;2.90;;
691;SDS011;70475;50.084;8.576;2023-06-10T15:01:25;4.13;;;3.73;;
691;SDS011;70475;50.084;8.576;2023-06-10T15:03:52;3.27;;;2.77;;
691;SDS011;70475;50.084;8.576;2023-06-10T15:06:21;3.00;;;2.70;;
691;SDS011;70475;50.084;8.576;2023-06-10T15:08:49;3.40;;;3.10;;
691;SDS011;70475;50.084;8.576;2023-06-10T15:11:16;3.47;;;3.17;;
691;SDS011;70475;50.084;8.576;2023-06-10T15:13:44;3.70;;;3.40;;
691;SDS011;70475;50.084;8.576;2023-06-10T15:16:11;3.57;;;3.27;;
691;SDS011;70475;50.084;8.576;2023-06-10T15:18:39;4.40;;;3.40;;
691;SDS011;70475;50.084;8.576;2023-06-10T15:21:07;3.40;;;3.10;;
691;SDS011;70475;50.084;8.576;2023-06-10T15:23:35;3.70;;;3.37;;
691;SDS011;70475;50.084;8.576;2023-06-10T15:26:03;3.77;;;3.07;;
691;SDS011;70475;50.084;8.576;2023-06-10T15:28:31;3.70;;;3.30;;
691;SDS011;70475;50.084;8.576;2023-06-10T15:30:58;4.70;;;4.30;;
691;SDS011;70475;50.084;8.576;2023-06-10T15:33:26;4.67;;;3.67;;